sensor_id;sensor_type;location;lat;lon;timestamp;P1;durP1;ratioP1;P2;durP2;ratioP2
3347;SDS011;1687;49.540;8.574;2023-04-28T00:02:01;9.50;;;4.80;;
3347;SDS011;1687;49.540;8.574;2023-04-28T00:04:27;17.40;;;5.00;;
3347;SDS011;1687;49.540;8.574;2023-04-28T00:06:53;12.60;;;4.80;;
3347;SDS011;1687;49.540;8.574;2023-04-28T00:09:19;9.10;;;5.00;;
3347;SDS011;1687;49.540;8.574;2023-04-28T00:11:44;8.37;;;5.20;;
3347;SDS011;1687;49.540;8.574;2023-04-28T00:14:10;9.73;;;4.53;;
3347;SDS011;1687;49.540;8.574;2023-04-28T00:16:37;9.90;;;4.50;;
3347;SDS011;1687;49.540;8.574;2023-04-28T00:19:02;13.90;;;4.70;;
3347;SDS011;1687;49.540;8.574;2023-04-28T00:21:28;8.83;;;5.27;;
3347;SDS011;1687;49.540;8.574;2023-04-28T00:23:54;10.37;;;5.43;;
3347;SDS011;1687;49.540;8.574;2023-04-28T00:26:20;12.97;;;6.40;;
3347;SDS011;1687;49.540;8.574;2023-04-28T00:28:45;15.43;;;5.63;;
3347;SDS011;1687;49.540;8.574;2023-04-28T00:31:12;11.30;;;5.07;;
3347;SDS011;1687;49.540;8.574;2023-04-28T00:33:39;7.77;;;4.77;;
3347;SDS011;1687;49.540;8.574;2023-04-28T00:36:06;9.67;;;5.27;;
3347;SDS011;1687;49.540;8.574;2023-04-28T00:38:32;8.70;;;4.57;;
3347;SDS011;1687;49.540;8.574;2023-04-28T00:40:58;13.40;;;5.20;;
3347;SDS011;1687;49.540;8.574;2023-04-28T00:43:24;11.63;;;5.67;;
3347;SDS011;1687;49.540;8.574;2023-04-28T00:45:49;11.73;;;5.30;;
3347;SDS011;1687;49.540;8.574;2023-04-28T00:48:16;9.43;;;5.50;;
3347;SDS011;1687;49.540;8.574;2023-04-28T00:50:43;10.50;;;5.63;;
3347;SDS011;1687;49.540;8.574;2023-04-28T00:53:10;8.70;;;4.90;;
3347;SDS011;1687;49.540;8.574;2023-04-28T00:55:37;9.87;;;5.17;;
3347;SDS011;1687;49.540;8.574;2023-04-28T00:58:06;12.83;;;5.97;;
3347;SDS011;1687;49.540;8.574;2023-04-28T01:00:32;29.13;;;5.57;;
3347;SDS011;1687;49.540;8.574;2023-04-28T01:02:58;10.87;;;5.73;;
3347;SDS011;1687;49.540;8.574;2023-04-28T01:05:25;13.87;;;6.97;;
3347;SDS011;1687;49.540;8.574;2023-04-28T01:07:51;28.03;;;6.80;;
3347;SDS011;1687;49.540;8.574;2023-04-28T01:10:17;15.17;;;5.57;;
3347;SDS011;1687;49.540;8.574;2023-04-28T01:12:43;10.70;;;5.73;;
3347;SDS011;1687;49.540;8.574;2023-04-28T01:15:11;10.53;;;4.33;;
3347;SDS011;1687;49.540;8.574;2023-04-28T01:17:42;7.80;;;5.57;;
3347;SDS011;1687;49.540;8.574;2023-04-28T01:20:09;8.47;;;4.77;;
3347;SDS011;1687;49.540;8.574;2023-04-28T01:22:35;13.60;;;5.33;;
3347;SDS011;1687;49.540;8.574;2023-04-28T01:25:00;12.23;;;5.47;;
3347;SDS011;1687;49.540;8.574;2023-04-28T01:27:28;11.40;;;5.30;;
3347;SDS011;1687;49.540;8.574;2023-04-28T01:29:53;9.00;;;5.27;;
3347;SDS011;1687;49.540;8.574;2023-04-28T01:32:19;10.30;;;5.67;;
3347;SDS011;1687;49.540;8.574;2023-04-28T01:34:45;9.00;;;5.27;;
3347;SDS011;1687;49.540;8.574;2023-04-28T01:37:11;11.37;;;4.97;;
3347;SDS011;1687;49.540;8.574;2023-04-28T01:39:37;11.77;;;5.90;;
3347;SDS011;1687;49.540;8.574;2023-04-28T01:42:02;13.03;;;5.60;;
3347;SDS011;1687;49.540;8.574;2023-04-28T01:44:28;9.00;;;5.43;;
3347;SDS011;1687;49.540;8.574;2023-04-28T01:46:54;14.57;;;6.27;;
3347;SDS011;1687;49.540;8.574;2023-04-28T01:49:20;8.40;;;4.80;;
3347;SDS011;1687;49.540;8.574;2023-04-28T01:51:45;10.00;;;5.40;;
3347;SDS011;1687;49.540;8.574;2023-04-28T01:54:11;11.53;;;5.83;;
3347;SDS011;1687;49.540;8.574;2023-04-28T01:56:37;10.80;;;5.53;;
3347;SDS011;1687;49.540;8.574;2023-04-28T01:59:02;13.33;;;6.23;;
3347;SDS011;1687;49.540;8.574;2023-04-28T02:01:28;12.17;;;6.60;;
3347;SDS011;1687;49.540;8.574;2023-04-28T02:03:54;11.13;;;7.60;;
3347;SDS011;1687;49.540;8.574;2023-04-28T02:06:20;11.60;;;5.57;;
3347;SDS011;1687;49.540;8.574;2023-04-28T02:08:46;9.80;;;5.27;;
3347;SDS011;1687;49.540;8.574;2023-04-28T02:11:11;10.63;;;5.93;;
3347;SDS011;1687;49.540;8.574;2023-04-28T02:13:37;11.10;;;4.93;;
3347;SDS011;1687;49.540;8.574;2023-04-28T02:16:03;8.60;;;5.30;;
3347;SDS011;1687;49.540;8.574;2023-04-28T02:18:29;25.03;;;7.00;;
3347;SDS011;1687;49.540;8.574;2023-04-28T02:20:54;11.03;;;5.63;;
3347;SDS011;1687;49.540;8.574;2023-04-28T02:23:20;13.40;;;6.93;;
3347;SDS011;1687;49.540;8.574;2023-04-28T02:25:45;10.60;;;5.37;;
3347;SDS011;1687;49.540;8.574;2023-04-28T02:28:11;9.70;;;5.80;;
3347;SDS011;1687;49.540;8.574;2023-04-28T02:30:37;20.10;;;9.57;;
3347;SDS011;1687;49.540;8.574;2023-04-28T02:33:03;17.50;;;6.17;;
3347;SDS011;1687;49.540;8.574;2023-04-28T02:35:28;13.70;;;6.40;;
3347;SDS011;1687;49.540;8.574;2023-04-28T02:37:54;12.63;;;6.60;;
3347;SDS011;1687;49.540;8.574;2023-04-28T02:40:20;11.60;;;6.60;;
3347;SDS011;1687;49.540;8.574;2023-04-28T02:42:46;17.90;;;7.30;;
3347;SDS011;1687;49.540;8.574;2023-04-28T02:45:11;16.73;;;6.43;;
3347;SDS011;1687;49.540;8.574;2023-04-28T02:47:37;10.13;;;5.40;;
3347;SDS011;1687;49.540;8.574;2023-04-28T02:50:03;16.67;;;8.10;;
3347;SDS011;1687;49.540;8.574;2023-04-28T02:52:29;18.67;;;7.47;;
3347;SDS011;1687;49.540;8.574;2023-04-28T02:54:55;14.60;;;8.70;;
3347;SDS011;1687;49.540;8.574;2023-04-28T02:57:22;13.77;;;7.73;;
3347;SDS011;1687;49.540;8.574;2023-04-28T02:59:48;13.87;;;7.50;;
3347;SDS011;1687;49.540;8.574;2023-04-28T03:02:14;19.17;;;7.43;;
3347;SDS011;1687;49.540;8.574;2023-04-28T03:04:40;15.20;;;7.37;;
3347;SDS011;1687;49.540;8.574;2023-04-28T03:07:06;16.43;;;6.43;;
3347;SDS011;1687;49.540;8.574;2023-04-28T03:09:32;15.00;;;6.70;;
3347;SDS011;1687;49.540;8.574;2023-04-28T03:11:57;12.03;;;7.40;;
3347;SDS011;1687;49.540;8.574;2023-04-28T03:14:23;15.70;;;8.63;;
3347;SDS011;1687;49.540;8.574;2023-04-28T03:16:49;13.43;;;7.60;;
3347;SDS011;1687;49.540;8.574;2023-04-28T03:19:15;12.97;;;7.33;;
3347;SDS011;1687;49.540;8.574;2023-04-28T03:21:40;16.00;;;8.83;;
3347;SDS011;1687;49.540;8.574;2023-04-28T03:24:06;16.23;;;8.03;;
3347;SDS011;1687;49.540;8.574;2023-04-28T03:26:32;21.40;;;8.33;;
3347;SDS011;1687;49.540;8.574;2023-04-28T03:28:58;17.77;;;8.70;;
3347;SDS011;1687;49.540;8.574;2023-04-28T03:31:24;20.93;;;7.33;;
3347;SDS011;1687;49.540;8.574;2023-04-28T03:33:50;15.13;;;8.10;;
3347;SDS011;1687;49.540;8.574;2023-04-28T03:36:16;14.13;;;8.43;;
3347;SDS011;1687;49.540;8.574;2023-04-28T03:38:42;13.60;;;7.90;;
3347;SDS011;1687;49.540;8.574;2023-04-28T03:41:08;16.33;;;7.97;;
3347;SDS011;1687;49.540;8.574;2023-04-28T03:43:33;12.50;;;7.17;;
3347;SDS011;1687;49.540;8.574;2023-04-28T03:46:01;28.70;;;9.77;;
3347;SDS011;1687;49.540;8.574;2023-04-28T03:48:28;13.87;;;7.80;;
3347;SDS011;1687;49.540;8.574;2023-04-28T03:50:54;20.23;;;7.93;;
3347;SDS011;1687;49.540;8.574;2023-04-28T03:53:19;18.40;;;8.43;;
3347;SDS011;1687;49.540;8.574;2023-04-28T03:55:45;12.77;;;6.63;;
3347;SDS011;1687;49.540;8.574;2023-04-28T03:58:11;14.80;;;8.07;;
3347;SDS011;1687;49.540;8.574;2023-04-28T04:00:36;24.63;;;8.90;;
3347;SDS011;1687;49.540;8.574;2023-04-28T04:03:02;11.97;;;7.17;;
3347;SDS011;1687;49.540;8.574;2023-04-28T04:05:28;14.77;;;8.63;;
3347;SDS011;1687;49.540;8.574;2023-04-28T04:07:54;14.57;;;7.00;;
3347;SDS011;1687;49.540;8.574;2023-04-28T04:10:20;14.50;;;8.70;;
3347;SDS011;1687;49.540;8.574;2023-04-28T04:12:45;16.97;;;8.00;;
3347;SDS011;1687;49.540;8.574;2023-04-28T04:15:11;16.33;;;7.87;;
3347;SDS011;1687;49.540;8.574;2023-04-28T04:17:37;16.50;;;8.60;;
3347;SDS011;1687;49.540;8.574;2023-04-28T04:20:02;12.67;;;8.10;;
3347;SDS011;1687;49.540;8.574;2023-04-28T04:22:29;17.50;;;7.83;;
3347;SDS011;1687;49.540;8.574;2023-04-28T04:24:55;20.77;;;9.90;;
3347;SDS011;1687;49.540;8.574;2023-04-28T04:27:20;27.43;;;9.50;;
3347;SDS011;1687;49.540;8.574;2023-04-28T04:29:46;18.03;;;10.77;;
3347;SDS011;1687;49.540;8.574;2023-04-28T04:32:11;16.60;;;9.30;;
3347;SDS011;1687;49.540;8.574;2023-04-28T04:34:37;13.77;;;7.73;;
3347;SDS011;1687;49.540;8.574;2023-04-28T04:37:03;24.57;;;9.50;;
3347;SDS011;1687;49.540;8.574;2023-04-28T04:39:28;13.63;;;8.47;;
3347;SDS011;1687;49.540;8.574;2023-04-28T04:41:54;14.70;;;8.17;;
3347;SDS011;1687;49.540;8.574;2023-04-28T04:44:20;13.50;;;8.40;;
3347;SDS011;1687;49.540;8.574;2023-04-28T04:46:46;17.20;;;9.40;;
3347;SDS011;1687;49.540;8.574;2023-04-28T04:49:12;19.73;;;9.77;;
3347;SDS011;1687;49.540;8.574;2023-04-28T04:51:38;17.83;;;8.60;;
3347;SDS011;1687;49.540;8.574;2023-04-28T04:54:03;31.40;;;10.27;;
3347;SDS011;1687;49.540;8.574;2023-04-28T04:56:29;21.83;;;10.50;;
3347;SDS011;1687;49.540;8.574;2023-04-28T04:58:55;17.77;;;9.73;;
3347;SDS011;1687;49.540;8.574;2023-04-28T05:01:21;15.00;;;7.50;;
3347;SDS011;1687;49.540;8.574;2023-04-28T05:03:47;15.13;;;7.43;;
3347;SDS011;1687;49.540;8.574;2023-04-28T05:06:12;13.70;;;6.47;;
3347;SDS011;1687;49.540;8.574;2023-04-28T05:08:38;19.03;;;7.80;;
3347;SDS011;1687;49.540;8.574;2023-04-28T05:11:04;22.73;;;7.90;;
3347;SDS011;1687;49.540;8.574;2023-04-28T05:13:29;13.43;;;6.20;;
3347;SDS011;1687;49.540;8.574;2023-04-28T05:15:55;11.63;;;6.80;;
3347;SDS011;1687;49.540;8.574;2023-04-28T05:18:21;10.40;;;5.93;;
3347;SDS011;1687;49.540;8.574;2023-04-28T05:20:46;39.00;;;6.63;;
3347;SDS011;1687;49.540;8.574;2023-04-28T05:23:12;15.20;;;6.70;;
3347;SDS011;1687;49.540;8.574;2023-04-28T05:25:38;37.47;;;5.87;;
3347;SDS011;1687;49.540;8.574;2023-04-28T05:28:04;18.77;;;5.63;;
3347;SDS011;1687;49.540;8.574;2023-04-28T05:30:31;11.10;;;5.43;;
3347;SDS011;1687;49.540;8.574;2023-04-28T05:32:58;11.57;;;5.87;;
3347;SDS011;1687;49.540;8.574;2023-04-28T05:35:24;9.83;;;5.20;;
3347;SDS011;1687;49.540;8.574;2023-04-28T05:37:50;11.83;;;5.00;;
3347;SDS011;1687;49.540;8.574;2023-04-28T05:40:16;12.60;;;5.60;;
3347;SDS011;1687;49.540;8.574;2023-04-28T05:42:42;14.50;;;6.27;;
3347;SDS011;1687;49.540;8.574;2023-04-28T05:45:08;13.20;;;6.60;;
3347;SDS011;1687;49.540;8.574;2023-04-28T05:47:34;11.50;;;6.50;;
3347;SDS011;1687;49.540;8.574;2023-04-28T05:50:00;13.30;;;6.17;;
3347;SDS011;1687;49.540;8.574;2023-04-28T05:52:26;10.07;;;5.80;;
3347;SDS011;1687;49.540;8.574;2023-04-28T05:54:52;17.23;;;5.57;;
3347;SDS011;1687;49.540;8.574;2023-04-28T05:57:17;12.70;;;6.33;;
3347;SDS011;1687;49.540;8.574;2023-04-28T05:59:43;11.63;;;5.20;;
3347;SDS011;1687;49.540;8.574;2023-04-28T06:02:09;9.80;;;5.73;;
3347;SDS011;1687;49.540;8.574;2023-04-28T06:04:35;13.97;;;6.20;;
3347;SDS011;1687;49.540;8.574;2023-04-28T06:07:00;14.37;;;6.00;;
3347;SDS011;1687;49.540;8.574;2023-04-28T06:09:26;11.23;;;5.47;;
3347;SDS011;1687;49.540;8.574;2023-04-28T06:11:52;12.77;;;6.70;;
3347;SDS011;1687;49.540;8.574;2023-04-28T06:14:17;10.70;;;5.60;;
3347;SDS011;1687;49.540;8.574;2023-04-28T06:16:43;13.67;;;6.40;;
3347;SDS011;1687;49.540;8.574;2023-04-28T06:19:09;13.40;;;7.10;;
3347;SDS011;1687;49.540;8.574;2023-04-28T06:21:35;8.77;;;5.20;;
3347;SDS011;1687;49.540;8.574;2023-04-28T06:24:01;24.40;;;6.30;;
3347;SDS011;1687;49.540;8.574;2023-04-28T06:26:26;7.70;;;5.50;;
3347;SDS011;1687;49.540;8.574;2023-04-28T06:28:52;13.57;;;6.20;;
3347;SDS011;1687;49.540;8.574;2023-04-28T06:31:18;14.27;;;5.90;;
3347;SDS011;1687;49.540;8.574;2023-04-28T06:33:44;12.77;;;7.20;;
3347;SDS011;1687;49.540;8.574;2023-04-28T06:36:09;12.60;;;6.73;;
3347;SDS011;1687;49.540;8.574;2023-04-28T06:38:40;17.00;;;7.60;;
3347;SDS011;1687;49.540;8.574;2023-04-28T06:41:07;11.27;;;6.10;;
3347;SDS011;1687;49.540;8.574;2023-04-28T06:43:34;17.57;;;6.17;;
3347;SDS011;1687;49.540;8.574;2023-04-28T06:45:59;13.70;;;6.10;;
3347;SDS011;1687;49.540;8.574;2023-04-28T06:48:25;13.50;;;6.20;;
3347;SDS011;1687;49.540;8.574;2023-04-28T06:50:51;12.20;;;5.53;;
3347;SDS011;1687;49.540;8.574;2023-04-28T06:53:16;11.87;;;5.63;;
3347;SDS011;1687;49.540;8.574;2023-04-28T06:55:42;20.37;;;7.50;;
3347;SDS011;1687;49.540;8.574;2023-04-28T06:58:08;16.90;;;6.33;;
3347;SDS011;1687;49.540;8.574;2023-04-28T07:00:33;18.33;;;7.47;;
3347;SDS011;1687;49.540;8.574;2023-04-28T07:02:59;12.60;;;7.30;;
3347;SDS011;1687;49.540;8.574;2023-04-28T07:05:25;14.37;;;6.80;;
3347;SDS011;1687;49.540;8.574;2023-04-28T07:07:51;13.17;;;6.80;;
3347;SDS011;1687;49.540;8.574;2023-04-28T07:10:17;11.87;;;7.20;;
3347;SDS011;1687;49.540;8.574;2023-04-28T07:12:44;14.00;;;6.70;;
3347;SDS011;1687;49.540;8.574;2023-04-28T07:15:10;19.40;;;6.70;;
3347;SDS011;1687;49.540;8.574;2023-04-28T07:17:36;16.23;;;7.33;;
3347;SDS011;1687;49.540;8.574;2023-04-28T07:20:02;14.07;;;6.83;;
3347;SDS011;1687;49.540;8.574;2023-04-28T07:22:29;14.00;;;6.57;;
3347;SDS011;1687;49.540;8.574;2023-04-28T07:24:55;9.97;;;6.00;;
3347;SDS011;1687;49.540;8.574;2023-04-28T07:27:21;15.70;;;8.20;;
3347;SDS011;1687;49.540;8.574;2023-04-28T07:29:47;11.87;;;6.47;;
3347;SDS011;1687;49.540;8.574;2023-04-28T07:32:12;11.27;;;6.50;;
3347;SDS011;1687;49.540;8.574;2023-04-28T07:34:38;13.37;;;6.60;;
3347;SDS011;1687;49.540;8.574;2023-04-28T07:37:04;14.00;;;6.50;;
3347;SDS011;1687;49.540;8.574;2023-04-28T07:39:30;17.43;;;7.13;;
3347;SDS011;1687;49.540;8.574;2023-04-28T07:41:58;11.30;;;6.37;;
3347;SDS011;1687;49.540;8.574;2023-04-28T07:44:26;11.97;;;6.70;;
3347;SDS011;1687;49.540;8.574;2023-04-28T07:46:53;13.97;;;6.67;;
3347;SDS011;1687;49.540;8.574;2023-04-28T07:49:18;15.50;;;7.67;;
3347;SDS011;1687;49.540;8.574;2023-04-28T07:51:44;14.20;;;6.13;;
3347;SDS011;1687;49.540;8.574;2023-04-28T07:54:10;12.67;;;7.57;;
3347;SDS011;1687;49.540;8.574;2023-04-28T07:56:36;14.17;;;6.80;;
3347;SDS011;1687;49.540;8.574;2023-04-28T07:59:01;15.47;;;6.70;;
3347;SDS011;1687;49.540;8.574;2023-04-28T08:01:27;17.93;;;6.83;;
3347;SDS011;1687;49.540;8.574;2023-04-28T08:03:53;12.17;;;6.90;;
3347;SDS011;1687;49.540;8.574;2023-04-28T08:06:18;11.20;;;6.27;;
3347;SDS011;1687;49.540;8.574;2023-04-28T08:08:44;11.03;;;6.30;;
3347;SDS011;1687;49.540;8.574;2023-04-28T08:11:11;21.03;;;6.80;;
3347;SDS011;1687;49.540;8.574;2023-04-28T08:13:36;14.63;;;7.13;;
3347;SDS011;1687;49.540;8.574;2023-04-28T08:16:02;12.20;;;6.33;;
3347;SDS011;1687;49.540;8.574;2023-04-28T08:18:28;11.30;;;6.27;;
3347;SDS011;1687;49.540;8.574;2023-04-28T08:20:54;13.67;;;7.60;;
3347;SDS011;1687;49.540;8.574;2023-04-28T08:23:20;10.87;;;5.80;;
3347;SDS011;1687;49.540;8.574;2023-04-28T08:25:46;9.70;;;5.30;;
3347;SDS011;1687;49.540;8.574;2023-04-28T08:28:12;11.13;;;6.03;;
3347;SDS011;1687;49.540;8.574;2023-04-28T08:30:38;13.60;;;6.77;;
3347;SDS011;1687;49.540;8.574;2023-04-28T08:33:04;11.47;;;6.83;;
3347;SDS011;1687;49.540;8.574;2023-04-28T08:35:29;13.07;;;6.53;;
3347;SDS011;1687;49.540;8.574;2023-04-28T08:37:55;16.40;;;6.37;;
3347;SDS011;1687;49.540;8.574;2023-04-28T08:40:21;13.80;;;7.53;;
3347;SDS011;1687;49.540;8.574;2023-04-28T08:42:48;15.50;;;8.47;;
3347;SDS011;1687;49.540;8.574;2023-04-28T08:45:14;13.37;;;7.70;;
3347;SDS011;1687;49.540;8.574;2023-04-28T08:47:40;13.53;;;7.10;;
3347;SDS011;1687;49.540;8.574;2023-04-28T08:50:10;10.63;;;7.17;;
3347;SDS011;1687;49.540;8.574;2023-04-28T08:52:37;9.80;;;6.23;;
3347;SDS011;1687;49.540;8.574;2023-04-28T08:55:07;13.90;;;7.07;;
3347;SDS011;1687;49.540;8.574;2023-04-28T08:57:38;13.10;;;6.27;;
3347;SDS011;1687;49.540;8.574;2023-04-28T09:00:09;11.03;;;6.40;;
3347;SDS011;1687;49.540;8.574;2023-04-28T09:02:36;16.97;;;8.33;;
3347;SDS011;1687;49.540;8.574;2023-04-28T09:05:06;18.90;;;8.13;;
3347;SDS011;1687;49.540;8.574;2023-04-28T09:07:33;11.10;;;6.60;;
3347;SDS011;1687;49.540;8.574;2023-04-28T09:10:14;13.63;;;6.33;;
3347;SDS011;1687;49.540;8.574;2023-04-28T09:12:42;15.10;;;6.80;;
3347;SDS011;1687;49.540;8.574;2023-04-28T09:15:08;9.20;;;6.03;;
3347;SDS011;1687;49.540;8.574;2023-04-28T09:17:49;10.17;;;6.80;;
3347;SDS011;1687;49.540;8.574;2023-04-28T09:20:23;17.13;;;7.63;;
3347;SDS011;1687;49.540;8.574;2023-04-28T09:22:51;13.90;;;7.50;;
3347;SDS011;1687;49.540;8.574;2023-04-28T09:25:18;10.33;;;6.00;;
3347;SDS011;1687;49.540;8.574;2023-04-28T09:27:50;9.20;;;5.97;;
3347;SDS011;1687;49.540;8.574;2023-04-28T09:30:16;12.73;;;6.67;;
3347;SDS011;1687;49.540;8.574;2023-04-28T09:32:42;20.00;;;7.30;;
3347;SDS011;1687;49.540;8.574;2023-04-28T09:35:08;9.87;;;5.40;;
3347;SDS011;1687;49.540;8.574;2023-04-28T09:37:34;9.80;;;6.23;;
3347;SDS011;1687;49.540;8.574;2023-04-28T09:40:07;13.30;;;7.13;;
3347;SDS011;1687;49.540;8.574;2023-04-28T09:42:38;9.40;;;5.73;;
3347;SDS011;1687;49.540;8.574;2023-04-28T09:45:09;10.80;;;6.07;;
3347;SDS011;1687;49.540;8.574;2023-04-28T09:47:41;11.73;;;6.50;;
3347;SDS011;1687;49.540;8.574;2023-04-28T09:50:11;16.40;;;7.13;;
3347;SDS011;1687;49.540;8.574;2023-04-28T09:52:39;13.60;;;6.60;;
3347;SDS011;1687;49.540;8.574;2023-04-28T09:55:06;11.40;;;6.90;;
3347;SDS011;1687;49.540;8.574;2023-04-28T09:57:33;11.03;;;7.00;;
3347;SDS011;1687;49.540;8.574;2023-04-28T10:00:00;14.17;;;7.17;;
3347;SDS011;1687;49.540;8.574;2023-04-28T10:02:30;11.97;;;7.40;;
3347;SDS011;1687;49.540;8.574;2023-04-28T10:04:58;17.10;;;8.10;;
3347;SDS011;1687;49.540;8.574;2023-04-28T10:07:24;11.47;;;6.50;;
3347;SDS011;1687;49.540;8.574;2023-04-28T10:09:51;13.93;;;6.93;;
3347;SDS011;1687;49.540;8.574;2023-04-28T10:12:20;8.67;;;6.37;;
3347;SDS011;1687;49.540;8.574;2023-04-28T10:14:48;12.67;;;7.00;;
3347;SDS011;1687;49.540;8.574;2023-04-28T10:17:18;14.37;;;6.80;;
3347;SDS011;1687;49.540;8.574;2023-04-28T10:19:46;13.07;;;6.70;;
3347;SDS011;1687;49.540;8.574;2023-04-28T10:25:19;14.93;;;7.50;;
3347;SDS011;1687;49.540;8.574;2023-04-28T10:27:51;11.60;;;7.07;;
3347;SDS011;1687;49.540;8.574;2023-04-28T10:30:19;14.57;;;7.67;;
3347;SDS011;1687;49.540;8.574;2023-04-28T10:38:08;14.10;;;7.07;;
3347;SDS011;1687;49.540;8.574;2023-04-28T10:40:41;14.50;;;7.40;;
3347;SDS011;1687;49.540;8.574;2023-04-28T10:43:11;12.20;;;7.37;;
3347;SDS011;1687;49.540;8.574;2023-04-28T10:46:01;13.73;;;7.40;;
3347;SDS011;1687;49.540;8.574;2023-04-28T10:58:47;14.17;;;8.17;;
3347;SDS011;1687;49.540;8.574;2023-04-28T11:06:21;14.80;;;9.13;;
3347;SDS011;1687;49.540;8.574;2023-04-28T11:08:59;14.27;;;7.13;;
3347;SDS011;1687;49.540;8.574;2023-04-28T11:19:24;12.13;;;7.30;;
3347;SDS011;1687;49.540;8.574;2023-04-28T11:21:52;12.33;;;6.93;;
3347;SDS011;1687;49.540;8.574;2023-04-28T11:24:22;11.80;;;6.27;;
3347;SDS011;1687;49.540;8.574;2023-04-28T11:26:53;14.63;;;7.70;;
3347;SDS011;1687;49.540;8.574;2023-04-28T11:29:35;11.50;;;6.90;;
3347;SDS011;1687;49.540;8.574;2023-04-28T11:32:03;12.90;;;7.00;;
3347;SDS011;1687;49.540;8.574;2023-04-28T11:34:31;13.40;;;7.90;;
3347;SDS011;1687;49.540;8.574;2023-04-28T11:36:58;12.00;;;7.30;;
3347;SDS011;1687;49.540;8.574;2023-04-28T11:39:28;11.90;;;6.50;;
3347;SDS011;1687;49.540;8.574;2023-04-28T11:41:56;13.77;;;8.00;;
3347;SDS011;1687;49.540;8.574;2023-04-28T11:44:33;11.23;;;7.20;;
3347;SDS011;1687;49.540;8.574;2023-04-28T11:47:00;14.20;;;8.17;;
3347;SDS011;1687;49.540;8.574;2023-04-28T11:49:31;11.30;;;6.67;;
3347;SDS011;1687;49.540;8.574;2023-04-28T11:52:10;16.50;;;8.13;;
3347;SDS011;1687;49.540;8.574;2023-04-28T11:54:37;10.37;;;7.13;;
3347;SDS011;1687;49.540;8.574;2023-04-28T11:57:03;18.63;;;7.73;;
3347;SDS011;1687;49.540;8.574;2023-04-28T11:59:30;12.30;;;6.90;;
3347;SDS011;1687;49.540;8.574;2023-04-28T12:02:00;13.03;;;7.43;;
3347;SDS011;1687;49.540;8.574;2023-04-28T12:09:43;12.57;;;6.33;;
3347;SDS011;1687;49.540;8.574;2023-04-28T12:12:33;11.40;;;6.20;;
3347;SDS011;1687;49.540;8.574;2023-04-28T12:15:00;12.70;;;6.83;;
3347;SDS011;1687;49.540;8.574;2023-04-28T12:20:07;25.33;;;9.07;;
3347;SDS011;1687;49.540;8.574;2023-04-28T12:22:48;16.27;;;8.67;;
3347;SDS011;1687;49.540;8.574;2023-04-28T12:25:16;12.13;;;6.97;;
3347;SDS011;1687;49.540;8.574;2023-04-28T12:27:59;14.07;;;7.83;;
3347;SDS011;1687;49.540;8.574;2023-04-28T12:30:27;15.00;;;7.30;;
3347;SDS011;1687;49.540;8.574;2023-04-28T12:32:55;13.30;;;7.43;;
3347;SDS011;1687;49.540;8.574;2023-04-28T12:35:21;28.20;;;7.40;;
3347;SDS011;1687;49.540;8.574;2023-04-28T12:37:51;13.17;;;7.70;;
3347;SDS011;1687;49.540;8.574;2023-04-28T12:40:17;11.90;;;6.63;;
3347;SDS011;1687;49.540;8.574;2023-04-28T12:42:43;16.63;;;7.60;;
3347;SDS011;1687;49.540;8.574;2023-04-28T12:45:09;16.87;;;8.13;;
3347;SDS011;1687;49.540;8.574;2023-04-28T12:47:35;11.43;;;7.27;;
3347;SDS011;1687;49.540;8.574;2023-04-28T12:50:02;11.37;;;6.10;;
3347;SDS011;1687;49.540;8.574;2023-04-28T12:52:29;12.40;;;7.47;;
3347;SDS011;1687;49.540;8.574;2023-04-28T12:54:57;9.40;;;5.70;;
3347;SDS011;1687;49.540;8.574;2023-04-28T12:57:24;9.67;;;5.60;;
3347;SDS011;1687;49.540;8.574;2023-04-28T12:59:50;8.10;;;4.60;;
3347;SDS011;1687;49.540;8.574;2023-04-28T13:02:16;13.50;;;7.27;;
3347;SDS011;1687;49.540;8.574;2023-04-28T13:04:42;9.93;;;6.33;;
3347;SDS011;1687;49.540;8.574;2023-04-28T13:07:13;12.53;;;6.30;;
3347;SDS011;1687;49.540;8.574;2023-04-28T13:09:40;7.10;;;4.40;;
3347;SDS011;1687;49.540;8.574;2023-04-28T13:12:07;7.93;;;4.30;;
3347;SDS011;1687;49.540;8.574;2023-04-28T13:14:33;7.20;;;4.50;;
3347;SDS011;1687;49.540;8.574;2023-04-28T13:16:59;13.07;;;4.10;;
3347;SDS011;1687;49.540;8.574;2023-04-28T13:19:25;6.20;;;3.50;;
3347;SDS011;1687;49.540;8.574;2023-04-28T13:21:51;11.50;;;5.30;;
3347;SDS011;1687;49.540;8.574;2023-04-28T13:24:17;5.60;;;2.80;;
3347;SDS011;1687;49.540;8.574;2023-04-28T13:26:43;6.23;;;3.43;;
3347;SDS011;1687;49.540;8.574;2023-04-28T13:29:09;7.07;;;3.67;;
3347;SDS011;1687;49.540;8.574;2023-04-28T13:31:35;4.70;;;2.60;;
3347;SDS011;1687;49.540;8.574;2023-04-28T13:34:01;6.13;;;2.27;;
3347;SDS011;1687;49.540;8.574;2023-04-28T13:36:28;3.00;;;2.00;;
3347;SDS011;1687;49.540;8.574;2023-04-28T13:38:54;3.40;;;2.07;;
3347;SDS011;1687;49.540;8.574;2023-04-28T13:41:20;7.77;;;2.33;;
3347;SDS011;1687;49.540;8.574;2023-04-28T13:43:46;4.43;;;2.73;;
3347;SDS011;1687;49.540;8.574;2023-04-28T13:46:12;7.67;;;3.30;;
3347;SDS011;1687;49.540;8.574;2023-04-28T13:48:38;6.13;;;3.23;;
3347;SDS011;1687;49.540;8.574;2023-04-28T13:51:05;4.73;;;2.77;;
3347;SDS011;1687;49.540;8.574;2023-04-28T13:53:32;8.97;;;3.23;;
3347;SDS011;1687;49.540;8.574;2023-04-28T13:56:00;7.13;;;2.80;;
3347;SDS011;1687;49.540;8.574;2023-04-28T13:58:26;6.60;;;3.03;;
3347;SDS011;1687;49.540;8.574;2023-04-28T14:00:52;4.80;;;3.00;;
3347;SDS011;1687;49.540;8.574;2023-04-28T14:03:19;13.20;;;3.43;;
3347;SDS011;1687;49.540;8.574;2023-04-28T14:05:50;10.83;;;3.60;;
3347;SDS011;1687;49.540;8.574;2023-04-28T14:08:18;9.23;;;3.10;;
3347;SDS011;1687;49.540;8.574;2023-04-28T14:10:45;5.87;;;3.10;;
3347;SDS011;1687;49.540;8.574;2023-04-28T14:13:12;5.90;;;2.67;;
3347;SDS011;1687;49.540;8.574;2023-04-28T14:15:38;6.90;;;2.50;;
3347;SDS011;1687;49.540;8.574;2023-04-28T14:18:04;4.67;;;2.20;;
3347;SDS011;1687;49.540;8.574;2023-04-28T14:20:31;10.57;;;2.90;;
3347;SDS011;1687;49.540;8.574;2023-04-28T14:22:56;7.63;;;4.00;;
3347;SDS011;1687;49.540;8.574;2023-04-28T14:25:23;5.70;;;3.80;;
3347;SDS011;1687;49.540;8.574;2023-04-28T14:27:49;10.57;;;4.30;;
3347;SDS011;1687;49.540;8.574;2023-04-28T14:30:16;8.60;;;5.20;;
3347;SDS011;1687;49.540;8.574;2023-04-28T14:32:43;6.20;;;3.23;;
3347;SDS011;1687;49.540;8.574;2023-04-28T14:35:09;6.97;;;3.60;;
3347;SDS011;1687;49.540;8.574;2023-04-28T14:37:36;7.87;;;4.10;;
3347;SDS011;1687;49.540;8.574;2023-04-28T14:40:03;7.73;;;3.30;;
3347;SDS011;1687;49.540;8.574;2023-04-28T14:42:32;6.23;;;2.80;;
3347;SDS011;1687;49.540;8.574;2023-04-28T14:45:07;6.30;;;2.83;;
3347;SDS011;1687;49.540;8.574;2023-04-28T14:47:35;6.73;;;2.80;;
3347;SDS011;1687;49.540;8.574;2023-04-28T14:50:02;8.10;;;3.60;;
3347;SDS011;1687;49.540;8.574;2023-04-28T14:52:29;7.60;;;4.00;;
3347;SDS011;1687;49.540;8.574;2023-04-28T14:54:57;8.97;;;4.23;;
3347;SDS011;1687;49.540;8.574;2023-04-28T14:57:23;7.47;;;3.60;;
3347;SDS011;1687;49.540;8.574;2023-04-28T14:59:50;6.63;;;2.60;;
3347;SDS011;1687;49.540;8.574;2023-04-28T15:02:16;12.10;;;3.00;;
3347;SDS011;1687;49.540;8.574;2023-04-28T15:04:43;4.70;;;2.60;;
3347;SDS011;1687;49.540;8.574;2023-04-28T15:07:10;8.93;;;2.50;;
3347;SDS011;1687;49.540;8.574;2023-04-28T15:09:36;4.73;;;2.17;;
3347;SDS011;1687;49.540;8.574;2023-04-28T15:12:02;3.27;;;2.03;;
3347;SDS011;1687;49.540;8.574;2023-04-28T15:14:29;1.50;;;1.20;;
3347;SDS011;1687;49.540;8.574;2023-04-28T15:16:55;2.83;;;1.40;;
3347;SDS011;1687;49.540;8.574;2023-04-28T15:19:20;5.03;;;1.27;;
3347;SDS011;1687;49.540;8.574;2023-04-28T15:21:46;3.13;;;0.93;;
3347;SDS011;1687;49.540;8.574;2023-04-28T15:24:13;1.50;;;0.77;;
3347;SDS011;1687;49.540;8.574;2023-04-28T15:26:40;1.20;;;0.80;;
3347;SDS011;1687;49.540;8.574;2023-04-28T15:29:07;4.80;;;0.90;;
3347;SDS011;1687;49.540;8.574;2023-04-28T15:31:34;2.03;;;1.53;;
3347;SDS011;1687;49.540;8.574;2023-04-28T15:33:59;5.43;;;1.70;;
3347;SDS011;1687;49.540;8.574;2023-04-28T15:36:25;3.70;;;1.27;;
3347;SDS011;1687;49.540;8.574;2023-04-28T15:38:52;3.83;;;1.67;;
3347;SDS011;1687;49.540;8.574;2023-04-28T15:41:18;4.63;;;1.63;;
3347;SDS011;1687;49.540;8.574;2023-04-28T15:43:44;3.13;;;1.87;;